Pengilly, MN (55775)

10:39 AM CST on February 06, 2016 (GMT -0600)
Calumet, MN | | Change Station
CLOSE
Current Station
Personal Weather Station
Location: Bovey, MN
Elevation: 1381 ft
Nearby Weather Stations

Elev 1381 ft 47.32 °N, 93.28 °W | Updated 5 minutes ago

Overcast
Overcast
27.7 °F
Feels Like 23 °F
N
3.7
Wind Variable Wind from East

Today
High -- | Low -- °F
--% Chance of Precip.
Yesterday
High -- | Low -- °F
Precip. -- in
Pressure 29.94 in
Visibility 8.0 miles
Clouds Few 600 ft
Mostly Cloudy 7500 ft
Overcast 11000 ft
Windchill 23 °F
Dew Point 21 °F
Humidity 76%
Rainfall 0.00 in
Snow Depth Not available.
7:32 AM 5:21 PM
Waning Crescent, 5% visible
SPECI KHIB 061512Z AUTO 18003KT 8SM FEW006 BKN075 OVC110 M08/M08 A2994 RMK AO2 T10781083 $
Pressure 29.94 in
Visibility 8.0 miles
Clouds Few 600 ft
Mostly Cloudy 7500 ft
Overcast 11000 ft
Windchill 23 °F
Dew Point 21 °F
Humidity 76%
Rainfall 0.00 in
Snow Depth Not available.
7:32 AM 5:21 PM
Waning Crescent, 5% visible
SPECI KHIB 061512Z AUTO 18003KT 8SM FEW006 BKN075 OVC110 M08/M08 A2994 RMK AO2 T10781083 $

10-Day Weather Forecast

Almanac

Astronomy

Feb. 06, 2016 Rise Set
Actual Time
Civil Twilight
Nautical Twilight
Astronomical Twilight
Moon
Length of Visible Light
Length of Day
Tomorrow will be .
, % of the Moon is Illuminated

Today's Extremes

State Highs State Lows

Community

WunderPhotos

Upload Photos

1,891,015 photos uploaded!

WunderBlog® & News

Nearby

Air Quality

  Air Quality AQ Index Pollutant
Not available.

Snow Depth

Station Depth Elevation

Earthquake Activity

City Distance Mag. Time & Date
Minimum magnitude displayed is 2.5.

Coastal Water Temperatures

Place Temperature

Stations

Nearby Weather Stations

Station Location Temp. Windchill Dew Point Humidity Wind Precip. Elev Updated Type
                   

Watches & Warnings

There are currently no watches in effect.